Time;durP1;ratioP1;P1;durP2;ratioP2;P2;SDS_P1;SDS_P2;PMS_P1;PMS_P2;Temp;Humidity;BMP_temperature;BMP_pressure;BME280_temperature;BME280_humidity;BME280_pressure;Samples;Min_cycle;Max_cycle;Signal;HPM_P1;HPM_P2
2023/03/24 00:01:51;;;;;;;2.60;0.50;;;11.40;99.90;;;;;;5060777;28;19919;-85
2023/03/24 00:04:17;;;;;;;1.80;0.38;;;11.30;99.90;;;;;;5058660;28;20025;-85
2023/03/24 00:06:43;;;;;;;1.33;0.30;;;11.40;99.90;;;;;;5061800;28;20541;-87
2023/03/24 00:09:10;;;;;;;1.77;0.40;;;11.40;99.90;;;;;;5058916;28;20166;-84
2023/03/24 00:11:35;;;;;;;2.10;0.68;;;11.40;99.90;;;;;;5061781;28;20032;-83
2023/03/24 00:14:02;;;;;;;2.78;0.40;;;11.40;99.90;;;;;;5041758;28;20021;-85
2023/03/24 00:16:28;;;;;;;1.20;0.40;;;11.40;99.90;;;;;;5055610;28;20120;-85
2023/03/24 00:18:54;;;;;;;2.47;0.45;;;11.40;99.90;;;;;;5057631;28;20171;-84
2023/03/24 00:21:23;;;;;;;1.88;0.40;;;11.40;99.90;;;;;;5061199;28;20031;-85
2023/03/24 00:23:50;;;;;;;2.03;0.50;;;11.40;99.90;;;;;;5039895;28;20036;-83
2023/03/24 00:26:16;;;;;;;3.35;0.40;;;11.40;99.90;;;;;;5057705;28;20025;-84
2023/03/24 00:28:44;;;;;;;1.33;0.40;;;11.40;99.90;;;;;;5033710;28;20029;-86
2023/03/24 00:31:13;;;;;;;2.33;0.60;;;11.40;99.90;;;;;;5055660;28;20037;-83
2023/03/24 00:33:41;;;;;;;3.40;0.40;;;11.40;99.90;;;;;;5037342;28;20028;-82
2023/03/24 00:36:11;;;;;;;1.25;0.40;;;11.40;99.90;;;;;;5038467;28;20041;-84
2023/03/24 00:38:39;;;;;;;2.50;0.40;;;11.40;99.90;;;;;;5045738;28;20444;-82
2023/03/24 00:41:06;;;;;;;2.45;0.30;;;11.40;99.90;;;;;;5050606;28;20037;-83
2023/03/24 00:43:33;;;;;;;1.95;0.50;;;11.40;99.90;;;;;;5042785;28;20035;-84
2023/03/24 00:46:00;;;;;;;1.98;0.60;;;11.40;99.90;;;;;;5055037;28;20032;-83
2023/03/24 00:48:27;;;;;;;2.40;0.50;;;11.40;99.90;;;;;;5049634;28;20412;-82
2023/03/24 00:50:54;;;;;;;0.90;0.40;;;11.40;99.90;;;;;;5060715;28;20043;-83
2023/03/24 00:53:22;;;;;;;3.00;0.70;;;11.40;99.90;;;;;;5039346;28;20473;-82
2023/03/24 00:55:48;;;;;;;1.83;0.50;;;11.40;99.90;;;;;;5042043;28;20037;-84
2023/03/24 00:58:18;;;;;;;4.18;0.50;;;11.50;99.90;;;;;;5032725;28;20044;-83
2023/03/24 01:00:49;;;;;;;1.35;0.40;;;11.50;99.90;;;;;;5039148;28;20094;-84
2023/03/24 01:03:16;;;;;;;1.67;0.40;;;11.50;99.90;;;;;;5038227;28;20461;-84
2023/03/24 01:05:47;;;;;;;1.48;0.50;;;11.50;99.90;;;;;;5046820;28;20143;-84
2023/03/24 01:08:14;;;;;;;2.08;0.50;;;11.50;99.90;;;;;;5034471;28;20021;-83
2023/03/24 01:10:49;;;;;;;1.02;0.40;;;11.50;99.90;;;;;;5044355;28;20036;-85
2023/03/24 01:13:16;;;;;;;1.70;0.50;;;11.60;99.90;;;;;;5039660;28;20067;-84
2023/03/24 01:15:44;;;;;;;3.33;0.70;;;11.60;99.90;;;;;;5055242;28;20047;-83
2023/03/24 01:18:11;;;;;;;2.58;0.45;;;11.60;99.90;;;;;;5032489;28;20029;-84
2023/03/24 01:20:39;;;;;;;1.00;0.40;;;11.60;99.90;;;;;;5033447;28;20145;-85
2023/03/24 01:23:06;;;;;;;2.20;0.50;;;11.60;99.90;;;;;;5031741;28;20029;-84
2023/03/24 01:25:34;;;;;;;2.72;0.50;;;11.60;99.90;;;;;;5055671;28;20032;-85
2023/03/24 01:28:00;;;;;;;1.80;0.43;;;11.60;99.90;;;;;;5056858;28;20028;-86
2023/03/24 01:30:27;;;;;;;1.55;0.50;;;11.60;99.90;;;;;;5042301;28;20045;-84
2023/03/24 01:32:53;;;;;;;2.03;0.50;;;11.60;99.90;;;;;;5055035;28;20022;-86
2023/03/24 01:35:21;;;;;;;1.10;0.40;;;11.60;99.90;;;;;;5056335;28;20473;-85
2023/03/24 01:37:47;;;;;;;1.52;0.50;;;11.60;99.90;;;;;;5055999;28;20600;-85
2023/03/24 01:40:22;;;;;;;1.63;0.50;;;11.60;99.90;;;;;;5031215;28;22154;-86
2023/03/24 01:42:48;;;;;;;2.30;0.55;;;11.60;99.90;;;;;;5043687;28;20032;-85
2023/03/24 01:45:35;;;;;;;1.52;0.45;;;11.70;99.90;;;;;;5039303;28;20025;-85
2023/03/24 01:48:02;;;;;;;1.88;0.40;;;11.70;99.90;;;;;;5045865;28;20021;-87
2023/03/24 01:50:30;;;;;;;1.17;0.45;;;11.70;99.90;;;;;;5031724;28;20044;-83
2023/03/24 01:52:56;;;;;;;1.27;0.40;;;11.70;99.90;;;;;;5059871;28;20044;-87
2023/03/24 01:55:22;;;;;;;1.10;0.40;;;11.70;99.90;;;;;;5053093;28;20033;-85
2023/03/24 01:57:58;;;;;;;1.98;0.52;;;11.70;99.90;;;;;;5054734;28;20045;-83
2023/03/24 02:00:29;;;;;;;1.70;0.43;;;11.70;99.90;;;;;;5031714;28;20218;-87
2023/03/24 02:03:32;;;;;;;1.23;0.40;;;11.70;99.90;;;;;;5068751;28;20150;-87
2023/03/24 02:06:01;;;;;;;1.52;0.40;;;11.70;99.90;;;;;;5030484;28;20025;-85
2023/03/24 02:08:47;;;;;;;1.02;0.30;;;11.70;99.90;;;;;;5029388;28;20488;-83
2023/03/24 02:11:13;;;;;;;1.45;0.50;;;11.70;99.90;;;;;;5034651;28;20051;-83
2023/03/24 02:13:47;;;;;;;1.20;0.50;;;11.70;99.90;;;;;;5044182;28;20028;-81
2023/03/24 02:16:22;;;;;;;1.40;0.50;;;11.70;99.90;;;;;;5029408;28;20081;-83
2023/03/24 02:19:03;;;;;;;1.33;0.50;;;11.80;99.90;;;;;;5047394;28;20044;-81
2023/03/24 02:21:50;;;;;;;3.38;0.60;;;11.70;99.90;;;;;;5036785;28;20032;-82
2023/03/24 02:24:31;;;;;;;4.43;0.80;;;11.80;99.90;;;;;;5030653;28;20076;-83
2023/03/24 02:27:21;;;;;;;1.42;0.43;;;11.80;99.90;;;;;;5032248;28;20029;-83
2023/03/24 02:29:46;;;;;;;1.35;0.40;;;11.80;99.90;;;;;;5074023;28;20032;-84
2023/03/24 02:32:29;;;;;;;1.65;0.40;;;11.70;99.90;;;;;;5043859;28;20514;-84
2023/03/24 02:35:18;;;;;;;1.42;0.50;;;11.70;99.90;;;;;;5047862;28;20187;-83
2023/03/24 02:38:02;;;;;;;1.65;0.63;;;11.70;99.90;;;;;;5039768;28;20104;-84
2023/03/24 02:40:45;;;;;;;2.08;0.50;;;11.70;99.90;;;;;;5037679;28;20029;-84
2023/03/24 02:43:30;;;;;;;2.25;0.50;;;11.80;99.90;;;;;;5047046;28;20025;-82
2023/03/24 02:46:12;;;;;;;1.23;0.50;;;11.80;99.90;;;;;;5068210;28;20056;-84
2023/03/24 02:49:15;;;;;;;1.45;0.50;;;11.80;99.90;;;;;;5056860;28;20032;-83
2023/03/24 02:51:55;;;;;;;1.63;0.50;;;11.80;99.90;;;;;;5055112;28;20052;-82
2023/03/24 02:54:43;;;;;;;1.40;0.50;;;11.80;99.90;;;;;;5045230;28;20026;-85
2023/03/24 02:57:39;;;;;;;2.53;0.70;;;11.80;99.90;;;;;;5041603;28;20389;-86
2023/03/24 03:00:40;;;;;;;1.98;0.50;;;11.80;99.90;;;;;;5051896;28;20043;-82
2023/03/24 03:03:22;;;;;;;1.23;0.50;;;11.80;99.90;;;;;;5048069;28;20064;-83
2023/03/24 03:06:06;;;;;;;1.30;0.60;;;11.80;99.90;;;;;;5046344;28;20431;-83
2023/03/24 03:08:33;;;;;;;1.42;0.57;;;11.80;99.90;;;;;;5049085;28;20025;-83
2023/03/24 03:11:01;;;;;;;1.70;0.75;;;11.80;99.90;;;;;;5051063;28;20048;-82
2023/03/24 03:13:36;;;;;;;1.60;0.60;;;11.80;99.90;;;;;;5036830;28;20033;-83
2023/03/24 03:16:11;;;;;;;1.92;0.70;;;11.90;99.90;;;;;;5070451;28;20036;-86
2023/03/24 03:18:50;;;;;;;2.05;0.90;;;11.80;99.90;;;;;;5032709;28;20052;-86
2023/03/24 03:21:22;;;;;;;2.35;0.70;;;11.90;99.90;;;;;;5041398;28;20465;-84
2023/03/24 03:23:57;;;;;;;2.80;0.85;;;11.80;99.90;;;;;;5059162;28;20032;-84
2023/03/24 03:26:27;;;;;;;2.22;0.85;;;11.90;99.90;;;;;;5049570;28;20021;-85
2023/03/24 03:28:58;;;;;;;1.02;0.40;;;11.90;99.90;;;;;;5046856;28;20060;-86
2023/03/24 03:31:34;;;;;;;1.48;0.60;;;11.90;99.90;;;;;;5050994;28;20087;-84
2023/03/24 03:34:24;;;;;;;3.90;1.30;;;11.90;99.90;;;;;;5029834;28;20034;-87
2023/03/24 03:37:00;;;;;;;1.58;0.50;;;11.90;99.90;;;;;;5049226;28;20029;-83
2023/03/24 03:39:35;;;;;;;3.25;0.40;;;11.80;99.90;;;;;;5044433;28;20417;-83
2023/03/24 03:42:05;;;;;;;2.03;0.40;;;11.80;99.90;;;;;;5077408;28;20192;-83
2023/03/24 03:44:31;;;;;;;1.30;0.30;;;11.60;99.90;;;;;;5064767;28;20024;-83
2023/03/24 03:46:58;;;;;;;2.13;0.20;;;11.40;99.90;;;;;;5057986;28;20029;-82
2023/03/24 03:49:36;;;;;;;1.17;0.20;;;11.30;99.90;;;;;;5056101;28;20060;-81
2023/03/24 03:52:02;;;;;;;1.00;0.30;;;11.20;99.90;;;;;;5038952;28;20032;-82
2023/03/24 03:54:31;;;;;;;1.92;0.20;;;11.10;99.90;;;;;;5060669;28;20052;-82
2023/03/24 03:56:58;;;;;;;2.97;0.20;;;11.10;99.90;;;;;;5075738;28;20048;-84
2023/03/24 03:59:35;;;;;;;0.70;0.20;;;11.00;99.90;;;;;;5057882;28;20052;-87
2023/03/24 04:02:20;;;;;;;2.47;0.13;;;11.10;99.90;;;;;;5054847;28;20029;-84
2023/03/24 04:05:12;;;;;;;3.78;0.10;;;11.00;99.90;;;;;;5040317;28;20036;-83
2023/03/24 04:08:09;;;;;;;2.30;0.15;;;10.90;99.90;;;;;;5034931;28;20166;-86
2023/03/24 04:11:07;;;;;;;2.08;0.30;;;10.90;99.90;;;;;;5056579;28;20135;-85
2023/03/24 04:14:31;;;;;;;1.27;0.20;;;10.80;99.90;;;;;;5052986;28;20025;-85
2023/03/24 04:17:44;;;;;;;2.78;0.20;;;10.60;99.90;;;;;;5024091;28;20056;-84
2023/03/24 04:20:21;;;;;;;3.70;0.20;;;10.60;99.90;;;;;;5051542;28;20063;-86
2023/03/24 04:23:13;;;;;;;4.75;0.20;;;10.50;99.90;;;;;;5042786;28;20024;-86
2023/03/24 04:25:55;;;;;;;4.75;0.20;;;10.50;99.90;;;;;;5029213;28;20029;-88
2023/03/24 04:28:33;;;;;;;3.28;0.30;;;10.40;99.90;;;;;;5043617;28;20032;-85
2023/03/24 04:31:15;;;;;;;3.10;0.85;;;10.40;99.90;;;;;;5057277;28;20044;-86
2023/03/24 04:33:40;;;;;;;2.17;0.30;;;10.40;99.90;;;;;;5057052;28;20036;-86
2023/03/24 04:36:15;;;;;;;4.63;0.40;;;10.40;99.90;;;;;;5057201;28;20113;-83
2023/03/24 04:39:15;;;;;;;5.90;0.30;;;10.40;99.90;;;;;;5057773;28;20489;-87
2023/03/24 04:41:48;;;;;;;3.08;0.43;;;10.40;99.90;;;;;;5038859;28;20028;-88
2023/03/24 04:44:22;;;;;;;4.20;0.55;;;10.30;99.90;;;;;;5058912;28;20083;-84
2023/03/24 04:47:09;;;;;;;7.00;0.52;;;10.40;99.90;;;;;;5064353;28;20025;-86
2023/03/24 04:49:39;;;;;;;7.53;0.45;;;10.30;99.90;;;;;;5042300;28;20021;-85
2023/03/24 04:52:06;;;;;;;3.60;0.45;;;10.30;99.90;;;;;;5055465;28;20049;-88
2023/03/24 04:54:33;;;;;;;7.75;0.80;;;10.20;99.90;;;;;;5065201;28;20088;-86
2023/03/24 04:57:04;;;;;;;7.88;0.60;;;10.20;99.90;;;;;;5052997;28;20052;-86
2023/03/24 04:59:42;;;;;;;6.53;0.50;;;10.20;99.90;;;;;;5057225;28;20492;-85
2023/03/24 05:02:09;;;;;;;3.42;0.50;;;10.20;99.90;;;;;;5059111;28;20041;-85
2023/03/24 05:05:07;;;;;;;9.52;0.70;;;10.20;99.90;;;;;;5054879;28;20040;-86
2023/03/24 05:07:37;;;;;;;6.70;0.50;;;10.10;99.90;;;;;;5040702;28;20025;-87
2023/03/24 05:10:08;;;;;;;11.07;1.35;;;10.10;99.90;;;;;;5050263;28;20473;-86
2023/03/24 05:12:39;;;;;;;5.53;0.43;;;10.00;99.90;;;;;;5040121;28;20025;-87
2023/03/24 05:15:21;;;;;;;9.07;0.52;;;10.00;99.90;;;;;;5057617;28;20053;-86
2023/03/24 05:17:51;;;;;;;9.77;0.63;;;10.00;99.90;;;;;;5039457;28;20036;-85
2023/03/24 05:20:18;;;;;;;8.40;0.60;;;9.90;99.90;;;;;;5055478;28;20029;-85
2023/03/24 05:22:48;;;;;;;9.88;1.08;;;9.90;99.90;;;;;;5039196;28;20020;-86
2023/03/24 05:25:15;;;;;;;8.07;0.60;;;9.80;99.90;;;;;;5031335;28;20021;-85
2023/03/24 05:27:42;;;;;;;10.55;1.08;;;9.70;99.90;;;;;;5046780;28;20159;-85
2023/03/24 05:30:19;;;;;;;13.95;1.20;;;9.70;99.90;;;;;;5042537;28;20033;-86
2023/03/24 05:32:45;;;;;;;10.77;1.52;;;9.70;99.90;;;;;;5029678;28;20025;-86
2023/03/24 05:35:11;;;;;;;8.15;1.08;;;9.60;99.90;;;;;;5028700;28;20542;-84
2023/03/24 05:37:37;;;;;;;7.22;0.70;;;9.50;99.90;;;;;;5054215;28;20032;-86
2023/03/24 05:40:04;;;;;;;6.75;0.98;;;9.50;99.90;;;;;;5040811;28;20020;-85
2023/03/24 05:42:39;;;;;;;9.98;1.98;;;9.50;99.90;;;;;;5034372;28;20036;-84
2023/03/24 05:45:06;;;;;;;10.13;1.65;;;9.60;99.90;;;;;;5065003;28;20028;-85
2023/03/24 05:47:32;;;;;;;7.63;0.93;;;9.50;99.90;;;;;;5060873;28;20025;-85
2023/03/24 05:49:57;;;;;;;4.10;0.80;;;9.50;99.90;;;;;;5046365;28;20029;-85
2023/03/24 05:52:23;;;;;;;5.95;1.13;;;9.50;99.90;;;;;;5038655;28;20436;-84
2023/03/24 05:54:55;;;;;;;11.88;1.00;;;9.50;99.90;;;;;;5046219;28;20102;-85
2023/03/24 05:57:25;;;;;;;7.15;0.98;;;9.50;99.90;;;;;;5054681;28;20477;-86
2023/03/24 06:00:15;;;;;;;9.52;1.65;;;9.50;99.90;;;;;;5055749;28;20032;-85
2023/03/24 06:02:50;;;;;;;9.65;2.38;;;9.50;99.90;;;;;;5044707;28;20135;-85
2023/03/24 06:05:30;;;;;;;10.27;1.02;;;9.60;99.90;;;;;;5042066;28;20038;-85
2023/03/24 06:07:57;;;;;;;11.13;1.13;;;9.60;99.90;;;;;;5029534;28;20029;-85
2023/03/24 06:10:28;;;;;;;12.52;1.20;;;9.80;99.90;;;;;;5039829;28;20032;-85
2023/03/24 06:12:55;;;;;;;10.15;1.17;;;9.80;99.90;;;;;;5041783;28;20147;-85
2023/03/24 06:15:23;;;;;;;12.98;1.50;;;9.90;99.90;;;;;;5040106;28;20032;-86
2023/03/24 06:17:53;;;;;;;8.45;1.35;;;9.90;99.90;;;;;;5037698;28;20039;-84
2023/03/24 06:20:32;;;;;;;9.95;1.35;;;9.90;99.90;;;;;;5043524;28;20436;-85
2023/03/24 06:23:10;;;;;;;10.82;1.25;;;9.90;99.90;;;;;;5043155;28;20065;-84
2023/03/24 06:26:02;;;;;;;10.95;1.65;;;10.00;99.90;;;;;;5055010;28;20585;-86
2023/03/24 06:28:33;;;;;;;10.35;1.23;;;10.00;99.90;;;;;;5047271;28;20115;-87
2023/03/24 06:31:03;;;;;;;14.65;1.17;;;10.10;99.90;;;;;;5029974;28;20527;-87
2023/03/24 06:33:33;;;;;;;8.15;0.60;;;10.00;99.90;;;;;;5051646;28;20034;-84
2023/03/24 06:36:00;;;;;;;8.07;0.77;;;10.10;99.90;;;;;;5031108;28;20239;-84
2023/03/24 06:38:26;;;;;;;8.40;1.02;;;10.10;99.90;;;;;;5045486;28;20059;-84
2023/03/24 06:40:52;;;;;;;5.38;0.60;;;10.10;99.90;;;;;;5052640;28;20045;-84
2023/03/24 06:43:18;;;;;;;9.70;0.93;;;10.30;99.90;;;;;;5051795;28;20099;-84
2023/03/24 06:45:44;;;;;;;9.93;1.00;;;10.30;99.90;;;;;;5057170;28;20183;-85
2023/03/24 06:48:16;;;;;;;5.63;0.85;;;10.30;99.90;;;;;;5057851;28;20027;-85
2023/03/24 06:50:41;;;;;;;4.85;0.60;;;10.20;99.90;;;;;;5061456;28;20040;-84
2023/03/24 06:53:09;;;;;;;5.13;0.88;;;10.30;99.90;;;;;;5040635;28;20025;-84
2023/03/24 06:55:35;;;;;;;5.30;1.00;;;10.20;99.90;;;;;;5052232;28;20033;-84
2023/03/24 06:58:02;;;;;;;4.20;0.80;;;10.20;99.90;;;;;;5034515;28;20041;-85
2023/03/24 07:00:54;;;;;;;5.07;0.85;;;10.30;99.90;;;;;;5047538;28;20033;-84
2023/03/24 07:03:31;;;;;;;8.38;1.13;;;10.30;99.90;;;;;;5055817;28;20035;-84
2023/03/24 07:06:17;;;;;;;4.88;0.68;;;10.40;99.90;;;;;;5055974;28;20388;-83
2023/03/24 07:08:44;;;;;;;7.30;1.00;;;10.40;99.90;;;;;;5058109;28;20295;-84
2023/03/24 07:11:10;;;;;;;4.65;0.85;;;10.50;99.90;;;;;;5058100;28;20033;-84
2023/03/24 07:13:40;;;;;;;5.40;0.70;;;10.50;99.90;;;;;;5040422;28;20473;-84
2023/03/24 07:16:07;;;;;;;8.68;0.98;;;10.50;99.90;;;;;;5037510;28;20033;-84
2023/03/24 07:18:35;;;;;;;5.03;0.90;;;10.60;99.90;;;;;;5057080;28;20045;-85
2023/03/24 07:21:04;;;;;;;7.00;1.40;;;10.70;99.90;;;;;;5065029;28;20029;-83
2023/03/24 07:23:31;;;;;;;5.38;0.75;;;10.70;99.90;;;;;;5040842;28;20029;-84
2023/03/24 07:26:14;;;;;;;4.30;0.50;;;10.80;99.90;;;;;;5062074;28;20513;-84
2023/03/24 07:28:46;;;;;;;7.25;0.90;;;10.80;99.90;;;;;;5054045;28;20037;-84
2023/03/24 07:31:18;;;;;;;6.50;0.80;;;10.70;99.90;;;;;;5056667;28;20065;-84
2023/03/24 07:33:45;;;;;;;7.65;0.68;;;10.80;99.90;;;;;;5042719;28;20028;-84
2023/03/24 07:36:12;;;;;;;6.10;0.70;;;11.10;99.90;;;;;;5043117;28;20025;-85
2023/03/24 07:38:39;;;;;;;10.45;0.80;;;11.30;99.90;;;;;;5047840;28;20056;-84
2023/03/24 07:41:09;;;;;;;8.20;1.38;;;11.20;99.90;;;;;;5000900;28;20083;-88
2023/03/24 07:43:40;;;;;;;10.10;0.80;;;11.10;99.90;;;;;;5038041;28;20033;-87
2023/03/24 07:46:38;;;;;;;6.82;1.10;;;11.30;99.90;;;;;;5033100;28;20639;-85
2023/03/24 07:49:05;;;;;;;8.60;1.15;;;11.20;99.90;;;;;;5045353;28;20071;-85
2023/03/24 07:51:31;;;;;;;11.65;1.30;;;11.20;99.90;;;;;;5029338;28;20070;-86
2023/03/24 07:54:15;;;;;;;7.55;0.80;;;11.60;99.90;;;;;;5037687;28;20425;-88
2023/03/24 07:56:45;;;;;;;10.05;1.20;;;11.70;99.90;;;;;;5022013;28;20059;-84
2023/03/24 07:59:11;;;;;;;16.67;1.63;;;11.60;99.90;;;;;;5020627;28;20033;-84
2023/03/24 08:01:49;;;;;;;9.25;1.13;;;11.40;99.90;;;;;;5037853;28;20134;-85
2023/03/24 08:04:18;;;;;;;7.63;0.70;;;11.40;99.90;;;;;;5021263;28;20033;-85
2023/03/24 08:06:57;;;;;;;9.80;1.15;;;11.50;99.90;;;;;;5022693;28;20042;-84
2023/03/24 08:09:23;;;;;;;12.60;1.00;;;11.60;99.90;;;;;;5038425;28;20445;-85
2023/03/24 08:11:49;;;;;;;12.07;1.13;;;11.50;99.90;;;;;;5020155;28;20195;-87
2023/03/24 08:14:15;;;;;;;8.05;0.95;;;11.60;99.90;;;;;;5044533;28;20085;-87
2023/03/24 08:16:41;;;;;;;8.35;0.60;;;11.70;99.90;;;;;;5034060;28;20592;-86
2023/03/24 08:19:07;;;;;;;6.28;1.20;;;11.80;99.90;;;;;;5029786;28;20569;-86
2023/03/24 08:21:35;;;;;;;11.13;1.15;;;11.70;99.90;;;;;;5022055;28;20047;-85
2023/03/24 08:24:00;;;;;;;9.25;0.70;;;11.70;99.90;;;;;;5027067;28;20044;-85
2023/03/24 08:26:26;;;;;;;6.85;0.80;;;11.60;99.90;;;;;;5030326;28;20052;-86
2023/03/24 08:28:52;;;;;;;6.38;0.80;;;11.60;99.90;;;;;;5020255;28;20044;-86
2023/03/24 08:31:18;;;;;;;8.30;0.82;;;11.70;99.90;;;;;;5038215;28;20536;-86
2023/03/24 08:33:44;;;;;;;8.35;0.70;;;11.80;99.90;;;;;;5019151;28;20129;-86
2023/03/24 08:36:10;;;;;;;12.25;1.48;;;11.80;99.90;;;;;;5034550;28;20489;-86
2023/03/24 08:38:37;;;;;;;11.07;1.25;;;12.00;99.90;;;;;;5053859;28;20108;-86
2023/03/24 08:41:05;;;;;;;9.02;0.68;;;12.10;99.90;;;;;;5019701;28;20062;-86
2023/03/24 08:43:33;;;;;;;5.82;0.73;;;12.30;99.90;;;;;;5020053;28;20044;-84
2023/03/24 08:46:00;;;;;;;11.23;0.95;;;12.20;99.90;;;;;;5020755;28;20430;-87
2023/03/24 08:48:27;;;;;;;14.90;0.80;;;12.20;99.90;;;;;;5037799;28;20041;-87
2023/03/24 08:50:54;;;;;;;5.70;0.73;;;12.40;99.90;;;;;;5036665;28;20887;-85
2023/03/24 08:53:20;;;;;;;10.05;0.88;;;12.60;99.90;;;;;;5037689;28;20111;-86
2023/03/24 08:55:47;;;;;;;7.20;0.85;;;12.50;99.90;;;;;;5020634;28;20532;-86
2023/03/24 08:58:15;;;;;;;12.77;0.93;;;12.60;99.90;;;;;;5034577;28;20861;-84
2023/03/24 09:00:42;;;;;;;9.75;0.77;;;13.00;99.90;;;;;;5028897;28;20123;-86
2023/03/24 09:03:11;;;;;;;8.45;1.20;;;12.80;99.90;;;;;;5037860;28;20748;-86
2023/03/24 09:05:37;;;;;;;10.15;0.85;;;12.60;99.90;;;;;;5035958;28;20041;-86
2023/03/24 09:08:03;;;;;;;9.85;1.10;;;12.70;99.90;;;;;;5020561;28;20043;-85
2023/03/24 09:10:29;;;;;;;8.77;0.77;;;12.80;99.90;;;;;;5054117;28;20036;-86
2023/03/24 09:12:54;;;;;;;10.63;1.42;;;12.50;99.90;;;;;;5035639;28;20033;-86
2023/03/24 09:15:20;;;;;;;6.75;1.00;;;12.80;99.90;;;;;;5039169;28;20500;-85
2023/03/24 09:17:46;;;;;;;9.88;1.50;;;12.40;99.90;;;;;;5043088;28;20075;-87
2023/03/24 09:20:14;;;;;;;8.05;0.93;;;12.40;99.90;;;;;;5025316;28;20030;-86
2023/03/24 09:22:42;;;;;;;6.85;0.80;;;12.30;99.90;;;;;;5048134;28;20443;-84
2023/03/24 09:25:11;;;;;;;6.82;1.00;;;12.80;99.90;;;;;;5045804;28;20021;-86
2023/03/24 09:27:36;;;;;;;7.75;0.70;;;13.10;99.90;;;;;;5055135;28;20120;-87
2023/03/24 09:30:03;;;;;;;7.18;0.70;;;13.50;99.90;;;;;;5054176;28;20116;-88
2023/03/24 09:32:28;;;;;;;10.45;0.70;;;13.30;99.90;;;;;;5037149;28;20457;-87
2023/03/24 09:34:54;;;;;;;9.05;0.70;;;12.90;99.90;;;;;;5070131;28;20072;-86
2023/03/24 09:37:20;;;;;;;7.47;0.75;;;12.90;99.90;;;;;;5043353;28;20056;-86
2023/03/24 09:39:45;;;;;;;10.13;1.25;;;12.80;99.90;;;;;;5029522;28;20032;-86
2023/03/24 09:42:21;;;;;;;7.00;0.50;;;12.70;99.90;;;;;;5038584;28;20104;-86
2023/03/24 09:44:52;;;;;;;5.95;0.50;;;12.80;99.90;;;;;;5027531;28;20047;-86
2023/03/24 09:47:30;;;;;;;11.18;0.65;;;12.50;99.90;;;;;;5070386;28;20376;-89
2023/03/24 09:50:20;;;;;;;6.95;0.88;;;12.20;99.90;;;;;;5053947;28;20118;-86
2023/03/24 09:52:52;;;;;;;8.40;0.70;;;12.30;99.90;;;;;;5055016;28;20069;-88
2023/03/24 09:55:24;;;;;;;10.15;1.08;;;12.30;99.90;;;;;;5038028;28;20043;-87
2023/03/24 09:57:53;;;;;;;7.07;0.80;;;12.40;99.90;;;;;;5041389;28;20094;-87
2023/03/24 10:00:23;;;;;;;7.57;0.65;;;12.60;99.90;;;;;;5064102;28;20457;-85
2023/03/24 10:02:50;;;;;;;6.05;0.65;;;12.60;99.90;;;;;;5049060;28;20033;-87
2023/03/24 10:05:23;;;;;;;8.40;0.55;;;13.30;99.90;;;;;;5044503;28;20020;-88
2023/03/24 10:08:03;;;;;;;5.60;0.73;;;13.60;99.90;;;;;;5055250;28;20109;-88
2023/03/24 10:11:08;;;;;;;7.10;0.70;;;12.90;99.90;;;;;;5060639;28;20428;-86
2023/03/24 10:13:50;;;;;;;9.25;0.82;;;12.60;99.90;;;;;;5032802;28;20036;-85
2023/03/24 10:16:34;;;;;;;4.82;0.55;;;12.60;99.90;;;;;;5045469;28;20474;-85
2023/03/24 10:19:12;;;;;;;5.68;0.50;;;12.70;99.90;;;;;;5026189;28;20109;-85
2023/03/24 10:21:41;;;;;;;6.28;0.80;;;12.60;99.90;;;;;;5054440;28;20420;-85
2023/03/24 10:24:41;;;;;;;10.17;0.60;;;12.50;99.90;;;;;;5059049;28;20081;-86
2023/03/24 10:27:29;;;;;;;3.40;0.50;;;12.60;99.90;;;;;;5030436;28;20026;-86
2023/03/24 10:30:03;;;;;;;6.55;0.90;;;12.50;99.90;;;;;;5062923;28;20160;-85
2023/03/24 10:32:34;;;;;;;4.28;0.50;;;12.80;99.90;;;;;;5007300;28;20076;-85
2023/03/24 10:35:08;;;;;;;14.40;0.80;;;13.10;99.90;;;;;;5033592;28;20485;-86
2023/03/24 10:37:35;;;;;;;4.68;0.88;;;13.10;99.90;;;;;;5034331;28;20028;-85
2023/03/24 10:40:05;;;;;;;4.70;0.50;;;13.50;99.90;;;;;;5019296;28;20032;-87
2023/03/24 10:42:34;;;;;;;6.32;0.50;;;14.00;99.90;;;;;;5017971;28;20033;-87
2023/03/24 10:45:01;;;;;;;6.93;0.68;;;14.10;99.90;;;;;;5026131;28;20131;-86
2023/03/24 10:47:29;;;;;;;5.18;0.50;;;13.70;99.90;;;;;;5035098;28;20089;-87
2023/03/24 10:50:01;;;;;;;6.70;0.70;;;13.80;99.90;;;;;;5018721;28;20512;-88
2023/03/24 10:52:28;;;;;;;4.78;0.40;;;13.80;99.90;;;;;;5035498;28;20044;-87
2023/03/24 10:55:05;;;;;;;5.10;0.50;;;13.70;99.90;;;;;;5019532;28;20485;-86
2023/03/24 10:57:31;;;;;;;6.13;0.60;;;13.20;99.90;;;;;;5045757;28;20098;-86
2023/03/24 11:00:15;;;;;;;5.03;0.50;;;12.90;99.90;;;;;;5063341;28;20025;-86
2023/03/24 11:02:42;;;;;;;5.07;0.60;;;12.80;99.90;;;;;;5042125;28;20033;-87
2023/03/24 11:05:10;;;;;;;5.85;0.60;;;13.30;99.90;;;;;;5044291;28;20107;-86
2023/03/24 11:07:39;;;;;;;4.47;0.40;;;13.30;99.90;;;;;;5048482;28;20025;-85
2023/03/24 11:10:17;;;;;;;5.65;0.50;;;13.20;99.90;;;;;;5045581;28;20033;-87
2023/03/24 11:13:06;;;;;;;5.57;0.40;;;12.80;99.90;;;;;;5044545;28;20056;-86
2023/03/24 11:15:36;;;;;;;4.57;0.50;;;12.80;99.90;;;;;;5060612;28;20494;-85
2023/03/24 11:18:15;;;;;;;4.50;0.65;;;12.60;99.90;;;;;;5029695;28;20542;-87
2023/03/24 11:20:57;;;;;;;3.50;0.45;;;12.50;99.90;;;;;;5031442;28;20033;-87
2023/03/24 11:23:28;;;;;;;5.60;0.60;;;12.90;99.90;;;;;;5045180;28;20032;-87
2023/03/24 11:26:12;;;;;;;3.50;0.82;;;13.10;99.90;;;;;;5033855;28;20029;-87
2023/03/24 11:28:46;;;;;;;4.55;0.70;;;13.00;99.90;;;;;;5037694;28;20032;-87
2023/03/24 11:31:23;;;;;;;4.13;0.50;;;13.20;99.90;;;;;;5060644;28;20038;-87
2023/03/24 11:34:06;;;;;;;3.88;0.57;;;13.20;99.90;;;;;;5054925;28;20435;-87
2023/03/24 11:36:32;;;;;;;3.65;0.63;;;13.20;99.90;;;;;;5056365;28;20371;-87
2023/03/24 11:39:00;;;;;;;4.05;0.30;;;13.40;99.90;;;;;;5039122;28;20032;-86
2023/03/24 11:41:27;;;;;;;5.38;0.82;;;13.90;99.90;;;;;;5033871;28;20033;-87
2023/03/24 11:44:22;;;;;;;4.40;0.50;;;13.60;99.90;;;;;;5031185;28;20017;-89
2023/03/24 11:46:58;;;;;;;5.18;0.60;;;12.80;99.90;;;;;;5038847;28;20021;-85
2023/03/24 11:49:30;;;;;;;3.13;0.30;;;12.40;99.90;;;;;;5047549;28;20061;-86
2023/03/24 11:51:57;;;;;;;3.22;0.40;;;12.20;99.90;;;;;;5032710;28;20036;-88
2023/03/24 11:54:42;;;;;;;2.00;0.30;;;12.10;99.90;;;;;;5057219;28;20029;-85
2023/03/24 11:57:16;;;;;;;1.65;0.30;;;12.10;99.90;;;;;;5052788;28;20047;-83
2023/03/24 11:59:56;;;;;;;1.77;0.30;;;12.20;99.90;;;;;;5057743;28;20036;-82
2023/03/24 12:02:42;;;;;;;1.98;0.20;;;12.30;99.90;;;;;;5055519;28;20130;-85
2023/03/24 12:05:24;;;;;;;3.63;1.02;;;12.10;99.90;;;;;;5055146;28;20040;-85
2023/03/24 12:08:33;;;;;;;1.67;0.30;;;11.80;99.90;;;;;;5049790;28;20040;-83
2023/03/24 12:11:20;;;;;;;2.15;0.30;;;11.60;99.90;;;;;;5054805;28;20124;-84
2023/03/24 12:13:48;;;;;;;2.75;0.40;;;11.40;99.90;;;;;;5048289;28;20029;-82
2023/03/24 12:16:32;;;;;;;3.15;0.40;;;11.20;99.90;;;;;;5040683;28;20505;-83
2023/03/24 12:19:10;;;;;;;4.70;0.38;;;10.90;99.90;;;;;;5051016;28;20075;-79
2023/03/24 12:22:00;;;;;;;6.28;0.50;;;10.60;99.90;;;;;;5058114;28;20039;-82
2023/03/24 12:24:45;;;;;;;2.58;0.40;;;10.60;99.90;;;;;;5045706;28;20527;-81
2023/03/24 12:27:27;;;;;;;3.22;0.50;;;10.80;99.90;;;;;;5037242;28;20040;-81
2023/03/24 12:30:00;;;;;;;3.97;0.60;;;10.70;99.90;;;;;;5056408;28;20431;-81
2023/03/24 12:32:51;;;;;;;4.05;0.80;;;10.70;99.90;;;;;;5055034;28;20044;-81
2023/03/24 12:35:27;;;;;;;3.38;0.60;;;10.70;99.90;;;;;;5044151;28;20437;-86
2023/03/24 12:38:17;;;;;;;5.68;0.90;;;10.80;99.90;;;;;;5048197;28;20115;-83
2023/03/24 12:41:01;;;;;;;5.07;0.70;;;10.80;99.90;;;;;;5047979;28;20040;-82
2023/03/24 12:43:53;;;;;;;4.05;0.60;;;10.90;99.90;;;;;;5046537;28;20435;-86
2023/03/24 12:46:57;;;;;;;11.23;1.27;;;11.00;99.90;;;;;;5059145;28;20119;-81
2023/03/24 12:50:04;;;;;;;7.47;1.58;;;10.80;99.90;;;;;;5038849;28;20086;-86
2023/03/24 12:52:58;;;;;;;4.55;1.00;;;10.60;99.90;;;;;;5049361;28;20057;-83
2023/03/24 12:55:42;;;;;;;5.15;1.08;;;10.60;99.90;;;;;;5046334;28;20150;-88
2023/03/24 12:58:24;;;;;;;7.78;1.30;;;10.50;99.90;;;;;;5033133;28;20052;-83
2023/03/24 13:01:09;;;;;;;4.22;0.90;;;10.70;99.90;;;;;;5046064;28;20041;-89
2023/03/24 13:03:40;;;;;;;6.82;0.70;;;10.90;99.90;;;;;;5053882;28;20032;-89
2023/03/24 13:06:22;;;;;;;3.60;0.63;;;11.00;99.90;;;;;;5038771;28;20024;-86
2023/03/24 13:09:09;;;;;;;5.95;0.95;;;11.30;99.90;;;;;;5053644;28;20072;-86
2023/03/24 13:11:45;;;;;;;6.63;0.93;;;11.50;99.90;;;;;;5047811;28;20607;-84
2023/03/24 13:14:15;;;;;;;7.80;1.02;;;11.40;99.90;;;;;;5053267;28;20082;-85
2023/03/24 13:16:45;;;;;;;7.38;0.70;;;11.40;99.90;;;;;;5047129;28;20029;-88
2023/03/24 13:19:20;;;;;;;3.35;0.52;;;11.70;99.90;;;;;;5038916;28;20024;-88
2023/03/24 13:21:46;;;;;;;5.45;0.80;;;12.00;99.90;;;;;;5029797;28;20047;-87